createdAt,value
2022-11-14T00:01:09.271Z,1.70
2022-11-14T00:03:36.297Z,1.95
2022-11-14T00:06:07.171Z,1.60
2022-11-14T00:08:34.785Z,2.08
2022-11-14T00:11:02.369Z,1.70
2022-11-14T00:13:29.408Z,2.00
2022-11-14T00:15:56.448Z,1.50
2022-11-14T00:18:23.549Z,1.85
2022-11-14T00:20:52.270Z,1.80
2022-11-14T00:23:21.108Z,2.00
2022-11-14T00:25:48.620Z,2.13
2022-11-14T00:28:16.193Z,2.00
2022-11-14T00:30:47.325Z,1.92
2022-11-14T00:33:19.813Z,2.03
2022-11-14T00:35:55.085Z,2.17
2022-11-14T00:38:22.924Z,1.80
2022-11-14T00:40:50.260Z,1.50
2022-11-14T00:43:17.487Z,1.60
2022-11-14T00:45:45.559Z,1.55
2022-11-14T00:48:12.822Z,1.83
2022-11-14T00:50:40.242Z,1.88
2022-11-14T00:53:07.326Z,1.80
2022-11-14T00:55:34.656Z,1.70
2022-11-14T00:58:01.666Z,1.83
2022-11-14T01:00:29.021Z,1.48
2022-11-14T01:02:57.058Z,1.55
2022-11-14T01:05:25.579Z,1.50
2022-11-14T01:07:52.809Z,1.77
2022-11-14T01:10:21.184Z,1.42
2022-11-14T01:12:48.516Z,1.50
2022-11-14T01:15:15.607Z,1.40
2022-11-14T01:17:42.850Z,1.42
2022-11-14T01:20:10.253Z,1.40
2022-11-14T01:22:37.284Z,1.40
2022-11-14T01:25:04.547Z,1.23
2022-11-14T01:27:32.218Z,1.10
2022-11-14T01:29:59.419Z,1.70
2022-11-14T01:32:27.797Z,1.35
2022-11-14T01:34:54.812Z,0.90
2022-11-14T01:37:22.584Z,1.02
2022-11-14T01:39:49.685Z,1.00
2022-11-14T01:42:17.725Z,1.08
2022-11-14T01:44:49.087Z,1.10
2022-11-14T01:47:26.667Z,1.20
2022-11-14T01:49:57.932Z,0.90
2022-11-14T01:52:46.223Z,0.98
2022-11-14T01:55:13.618Z,1.30
2022-11-14T01:57:46.177Z,1.10
2022-11-14T02:00:13.949Z,1.05
2022-11-14T02:02:41.824Z,0.90
2022-11-14T02:05:13.004Z,0.80
2022-11-14T02:07:41.596Z,1.35
2022-11-14T02:10:16.146Z,1.10
2022-11-14T02:12:43.774Z,1.13
2022-11-14T02:15:11.204Z,1.23
2022-11-14T02:17:38.430Z,1.38
2022-11-14T02:20:11.741Z,1.30
2022-11-14T02:22:42.894Z,1.00
2022-11-14T02:25:13.252Z,1.40
2022-11-14T02:27:41.743Z,1.20
2022-11-14T02:30:12.801Z,1.30
2022-11-14T02:33:08.862Z,1.20
2022-11-14T02:35:27.168Z,1.10
2022-11-14T02:37:54.236Z,1.20
2022-11-14T02:40:21.282Z,1.17
2022-11-14T02:42:48.369Z,1.27
2022-11-14T02:45:15.662Z,1.17
2022-11-14T02:47:42.862Z,1.10
2022-11-14T02:50:10.115Z,1.00
2022-11-14T02:52:37.129Z,1.15
2022-11-14T02:55:05.710Z,1.10
2022-11-14T02:57:32.772Z,1.40
2022-11-14T02:59:59.890Z,1.08
2022-11-14T03:02:26.955Z,1.00
2022-11-14T03:04:54.244Z,1.13
2022-11-14T03:07:21.437Z,1.10
2022-11-14T03:09:48.507Z,0.80
2022-11-14T03:12:19.814Z,1.05
2022-11-14T03:14:47.261Z,0.90
2022-11-14T03:17:14.262Z,0.70
2022-11-14T03:19:41.339Z,0.70
2022-11-14T03:22:08.397Z,0.50
2022-11-14T03:24:35.725Z,0.75
2022-11-14T03:27:02.762Z,0.50
2022-11-14T03:29:29.822Z,0.50
2022-11-14T03:31:57.008Z,0.40
2022-11-14T03:34:24.027Z,0.40
2022-11-14T03:36:51.022Z,0.40
2022-11-14T03:39:18.143Z,0.40
2022-11-14T03:41:45.159Z,0.40
2022-11-14T03:44:12.313Z,0.30
2022-11-14T03:46:39.303Z,0.40
2022-11-14T03:49:06.406Z,0.28
2022-11-14T03:51:33.467Z,0.45
2022-11-14T03:54:00.450Z,0.40
2022-11-14T03:56:27.667Z,0.47
2022-11-14T03:58:54.734Z,0.40
2022-11-14T04:01:21.772Z,0.43
2022-11-14T04:03:48.959Z,0.43
2022-11-14T04:06:16.124Z,0.40
2022-11-14T04:08:43.482Z,0.50
2022-11-14T04:11:10.560Z,0.20
2022-11-14T04:13:37.589Z,0.30
2022-11-14T04:16:04.855Z,0.45
2022-11-14T04:18:32.275Z,0.20
2022-11-14T04:20:59.477Z,0.30
2022-11-14T04:23:26.523Z,0.20
2022-11-14T04:25:53.814Z,0.20
2022-11-14T04:28:20.826Z,0.30
2022-11-14T04:30:48.030Z,0.28
2022-11-14T04:33:15.010Z,0.30
2022-11-14T04:35:42.409Z,0.30
2022-11-14T04:38:10.791Z,0.38
2022-11-14T04:40:37.868Z,0.47
2022-11-14T04:43:05.034Z,0.40
2022-11-14T04:45:32.262Z,0.30
2022-11-14T04:47:59.346Z,0.45
2022-11-14T04:50:26.427Z,0.45
2022-11-14T04:52:54.023Z,0.65
2022-11-14T04:55:21.240Z,0.30
2022-11-14T04:57:48.244Z,0.40
2022-11-14T05:00:15.698Z,0.50
2022-11-14T05:02:42.789Z,0.50
2022-11-14T05:05:10.088Z,0.60
2022-11-14T05:07:37.277Z,0.73
2022-11-14T05:10:04.803Z,0.50
2022-11-14T05:12:32.094Z,0.60
2022-11-14T05:14:59.190Z,0.47
2022-11-14T05:17:26.899Z,0.52
2022-11-14T05:19:54.184Z,0.63
2022-11-14T05:22:21.246Z,0.60
2022-11-14T05:24:48.315Z,0.40
2022-11-14T05:27:15.398Z,0.60
2022-11-14T05:29:42.553Z,0.60
2022-11-14T05:32:15.059Z,0.50
2022-11-14T05:34:43.338Z,0.50
2022-11-14T05:37:10.407Z,0.70
2022-11-14T05:39:37.641Z,0.80
2022-11-14T05:42:04.874Z,0.60
2022-11-14T05:44:32.263Z,0.47
2022-11-14T05:46:59.546Z,0.40
2022-11-14T05:49:26.608Z,0.50
2022-11-14T05:51:53.831Z,0.60
2022-11-14T05:54:20.915Z,0.63
2022-11-14T05:56:48.014Z,0.60
2022-11-14T05:59:15.140Z,0.43
2022-11-14T06:01:42.224Z,0.40
2022-11-14T06:04:09.284Z,0.43
2022-11-14T06:06:36.334Z,0.55
2022-11-14T06:09:03.516Z,0.60
2022-11-14T06:11:30.776Z,0.32
2022-11-14T06:13:58.585Z,0.40
2022-11-14T06:16:25.818Z,0.50
2022-11-14T06:18:54.304Z,0.40
2022-11-14T06:21:23.503Z,0.40
2022-11-14T06:23:51.843Z,0.45
2022-11-14T06:26:27.504Z,0.60
2022-11-14T06:28:54.528Z,0.35
2022-11-14T06:31:23.255Z,0.40
2022-11-14T06:33:50.876Z,0.40
2022-11-14T06:36:18.746Z,0.40
2022-11-14T06:38:46.205Z,0.40
2022-11-14T06:41:15.417Z,0.30
2022-11-14T06:43:44.645Z,0.30
2022-11-14T06:46:14.435Z,0.20
2022-11-14T06:48:42.278Z,0.30
2022-11-14T06:51:12.159Z,0.40
2022-11-14T06:53:39.973Z,0.38
2022-11-14T06:56:09.878Z,0.30
2022-11-14T06:58:40.573Z,0.40
2022-11-14T07:01:09.156Z,0.30
2022-11-14T07:03:36.233Z,0.40
2022-11-14T07:06:04.493Z,0.40
2022-11-14T07:08:32.576Z,0.30
2022-11-14T07:11:08.410Z,0.30
2022-11-14T07:13:36.378Z,0.40
2022-11-14T07:16:04.428Z,0.30
2022-11-14T07:18:33.337Z,0.40
2022-11-14T07:21:05.665Z,0.30
2022-11-14T07:23:36.108Z,0.30
2022-11-14T07:26:07.261Z,0.40
2022-11-14T07:28:35.795Z,0.40
2022-11-14T07:31:07.198Z,0.32
2022-11-14T07:33:34.811Z,0.30
2022-11-14T07:36:02.340Z,0.20
2022-11-14T07:38:31.603Z,0.38
2022-11-14T07:41:11.327Z,0.55
2022-11-14T07:43:38.836Z,0.28
2022-11-14T07:46:08.288Z,0.45
2022-11-14T07:48:36.668Z,0.45
2022-11-14T07:51:06.190Z,0.50
2022-11-14T07:53:35.170Z,0.38
2022-11-14T07:56:09.998Z,0.22
2022-11-14T07:58:38.646Z,0.45
2022-11-14T08:01:07.330Z,0.40
2022-11-14T08:03:35.073Z,0.75
2022-11-14T08:06:08.095Z,0.90
2022-11-14T08:08:35.577Z,1.52
2022-11-14T08:11:02.635Z,0.50
2022-11-14T08:13:33.173Z,0.70
2022-11-14T08:16:10.733Z,1.10
2022-11-14T08:18:39.854Z,0.70
2022-11-14T08:21:07.141Z,0.70
2022-11-14T08:23:34.210Z,0.93
2022-11-14T08:26:01.275Z,0.80
2022-11-14T08:28:29.438Z,0.45
2022-11-14T08:31:04.085Z,1.10
2022-11-14T08:33:31.832Z,1.70
2022-11-14T08:36:07.094Z,1.65
2022-11-14T08:38:35.011Z,0.68
2022-11-14T08:41:03.287Z,2.28
2022-11-14T08:43:31.927Z,2.63
2022-11-14T08:46:03.911Z,1.38
2022-11-14T08:48:32.484Z,2.85
2022-11-14T08:51:05.971Z,2.00
2022-11-14T08:53:34.317Z,1.17
2022-11-14T08:56:01.432Z,1.42
2022-11-14T08:58:31.359Z,1.00
2022-11-14T09:01:07.249Z,0.85
2022-11-14T09:03:34.708Z,2.20
2022-11-14T09:06:02.799Z,1.70
2022-11-14T09:08:30.942Z,1.20
2022-11-14T09:11:09.229Z,1.15
2022-11-14T09:13:37.231Z,0.93
2022-11-14T09:16:04.419Z,0.65
2022-11-14T09:18:32.233Z,1.27
2022-11-14T09:21:08.636Z,1.35
2022-11-14T09:23:36.110Z,1.20
2022-11-14T09:26:08.038Z,0.70
2022-11-14T09:28:35.702Z,1.20
2022-11-14T09:31:08.318Z,0.73
2022-11-14T09:33:35.721Z,1.17
2022-11-14T09:36:05.847Z,1.05
2022-11-14T09:38:38.248Z,1.00
2022-11-14T09:41:08.915Z,1.02
2022-11-14T09:44:20.575Z,1.35
2022-11-14T09:49:40.066Z,1.40
2022-11-14T09:52:51.893Z,1.20
2022-11-14T09:55:23.026Z,1.20
2022-11-14T09:57:50.302Z,1.13
2022-11-14T10:00:20.486Z,1.38
2022-11-14T10:03:16.816Z,1.83
2022-11-14T10:06:22.874Z,1.30
2022-11-14T10:09:00.238Z,1.10
2022-11-14T10:11:47.326Z,1.13
2022-11-14T10:14:40.804Z,1.48
2022-11-14T10:17:59.830Z,1.00
2022-11-14T10:20:45.519Z,1.45
2022-11-14T10:23:29.744Z,1.20
2022-11-14T10:26:18.469Z,1.63
2022-11-14T10:29:12.208Z,1.35
2022-11-14T10:31:54.020Z,1.17
2022-11-14T10:34:29.084Z,1.45
2022-11-14T10:37:12.522Z,1.10
2022-11-14T10:39:53.945Z,1.30
2022-11-14T10:42:34.842Z,1.20
2022-11-14T10:45:19.397Z,1.17
2022-11-14T10:47:57.059Z,1.27
2022-11-14T10:50:37.766Z,1.00
2022-11-14T10:53:15.175Z,1.60
2022-11-14T10:56:03.113Z,1.33
2022-11-14T10:58:29.974Z,1.17
2022-11-14T11:00:59.139Z,1.10
2022-11-14T11:03:55.972Z,1.40
2022-11-14T11:06:26.752Z,1.50
2022-11-14T11:09:12.509Z,1.00
2022-11-14T11:11:42.065Z,1.20
2022-11-14T11:14:18.429Z,1.60
2022-11-14T11:16:47.821Z,1.63
2022-11-14T11:19:27.951Z,1.20
2022-11-14T11:21:55.026Z,1.30
2022-11-14T11:24:37.183Z,1.60
2022-11-14T11:27:20.535Z,1.27
2022-11-14T11:29:47.764Z,1.67
2022-11-14T11:32:28.413Z,1.27
2022-11-14T11:34:57.337Z,1.57
2022-11-14T11:37:31.136Z,1.20
2022-11-14T11:40:03.262Z,1.33
2022-11-14T11:45:50.406Z,1.30
2022-11-14T11:48:21.065Z,1.17
2022-11-14T11:50:49.706Z,1.95
2022-11-14T11:53:22.628Z,1.38
2022-11-14T11:55:59.761Z,1.38
2022-11-14T11:58:37.881Z,1.60
2022-11-14T12:01:05.093Z,1.80
2022-11-14T12:03:32.350Z,1.80
2022-11-14T12:06:08.971Z,1.58
2022-11-14T12:09:18.199Z,1.67
2022-11-14T12:11:51.878Z,1.70
2022-11-14T12:14:30.625Z,2.40
2022-11-14T12:17:32.615Z,2.25
2022-11-14T12:20:15.636Z,3.42
2022-11-14T12:22:45.716Z,2.25
2022-11-14T12:25:31.277Z,3.20
2022-11-14T12:28:01.434Z,9.88
2022-11-14T12:30:29.260Z,2.45
2022-11-14T12:33:02.309Z,2.20
2022-11-14T12:35:35.054Z,3.35
2022-11-14T12:38:05.505Z,2.50
2022-11-14T12:40:41.464Z,2.80
2022-11-14T12:43:36.820Z,2.95
2022-11-14T12:46:13.178Z,2.65
2022-11-14T12:48:45.351Z,2.38
2022-11-14T12:51:24.660Z,2.78
2022-11-14T12:53:53.292Z,2.60
2022-11-14T12:56:29.635Z,3.00
2022-11-14T12:59:21.698Z,2.70
2022-11-14T13:01:54.702Z,3.10
2022-11-14T13:04:37.057Z,2.80
2022-11-14T13:07:37.651Z,2.67
2022-11-14T13:10:28.156Z,2.78
2022-11-14T13:13:19.030Z,2.55
2022-11-14T13:16:11.659Z,2.93
2022-11-14T13:19:12.755Z,3.40
2022-11-14T13:22:11.586Z,3.55
2022-11-14T13:24:59.716Z,3.22
2022-11-14T13:27:45.576Z,3.42
2022-11-14T13:30:15.635Z,3.30
2022-11-14T13:32:42.745Z,3.90
2022-11-14T13:35:31.112Z,3.10
2022-11-14T13:38:11.627Z,3.17
2022-11-14T13:41:06.836Z,3.55
2022-11-14T13:44:05.079Z,3.80
2022-11-14T13:46:36.131Z,3.40
2022-11-14T13:49:52.571Z,3.58
2022-11-14T13:52:19.961Z,3.33
2022-11-14T13:54:51.018Z,3.05
2022-11-14T13:57:18.185Z,3.78
2022-11-14T13:59:58.102Z,3.50
2022-11-14T14:02:56.107Z,3.25
2022-11-14T14:06:07.786Z,4.28
2022-11-14T14:09:05.948Z,3.78
2022-11-14T14:11:50.025Z,3.13
2022-11-14T14:14:37.763Z,3.10
2022-11-14T14:17:24.902Z,3.55
2022-11-14T14:20:10.177Z,3.40
2022-11-14T14:22:46.248Z,3.05
2022-11-14T14:25:13.439Z,3.80
2022-11-14T14:27:40.447Z,3.38
2022-11-14T14:30:13.564Z,2.85
2022-11-14T14:32:40.655Z,3.42
2022-11-14T14:35:28.086Z,3.72
2022-11-14T14:37:56.760Z,3.67
2022-11-14T14:40:36.182Z,3.25
2022-11-14T14:43:06.618Z,3.38
2022-11-14T14:45:49.420Z,3.75
2022-11-14T14:48:23.581Z,3.72
2022-11-14T14:50:56.138Z,3.30
2022-11-14T14:53:27.615Z,3.47
2022-11-14T14:58:34.673Z,3.53
2022-11-14T15:01:07.579Z,3.38
2022-11-14T15:03:40.736Z,3.28
2022-11-14T15:06:36.423Z,3.35
2022-11-14T15:09:16.808Z,3.47
2022-11-14T15:11:46.679Z,3.85
2022-11-14T15:14:23.268Z,3.63
2022-11-14T15:16:52.050Z,4.32
2022-11-14T15:19:23.028Z,4.22
2022-11-14T15:22:03.720Z,4.40
2022-11-14T15:24:31.238Z,4.20
2022-11-14T15:26:58.566Z,3.60
2022-11-14T15:29:28.921Z,4.07
2022-11-14T15:32:01.059Z,3.60
2022-11-14T15:34:34.100Z,3.63
2022-11-14T15:37:16.651Z,3.60
2022-11-14T15:39:44.899Z,4.10
2022-11-14T15:42:15.513Z,3.58
2022-11-14T15:44:43.236Z,3.97
2022-11-14T15:47:28.529Z,4.53
2022-11-14T15:50:02.749Z,3.72
2022-11-14T15:52:41.640Z,3.63
2022-11-14T15:55:20.303Z,3.72
2022-11-14T15:57:52.019Z,4.00
2022-11-14T16:00:27.877Z,3.65
2022-11-14T16:02:57.371Z,4.32
2022-11-14T16:05:30.788Z,4.68
2022-11-14T16:07:58.085Z,9.45
2022-11-14T16:10:27.682Z,5.32
2022-11-14T16:12:54.923Z,4.25
2022-11-14T16:15:22.463Z,4.65
2022-11-14T16:17:51.030Z,7.90
2022-11-14T16:20:24.285Z,7.57
2022-11-14T16:22:56.091Z,4.50
2022-11-14T16:25:28.259Z,4.47
2022-11-14T16:27:55.753Z,5.43
2022-11-14T16:30:25.102Z,5.03
2022-11-14T16:32:53.048Z,4.43
2022-11-14T16:35:22.514Z,4.80
2022-11-14T16:37:50.608Z,3.88
2022-11-14T16:40:29.823Z,4.15
2022-11-14T16:42:59.167Z,4.13
2022-11-14T16:45:27.072Z,4.35
2022-11-14T16:47:54.214Z,4.35
2022-11-14T16:50:21.801Z,4.72
2022-11-14T16:52:49.424Z,4.60
2022-11-14T16:55:16.608Z,4.32
2022-11-14T16:57:43.630Z,4.32
2022-11-14T17:00:13.460Z,4.38
2022-11-14T17:02:41.414Z,4.38
2022-11-14T17:05:08.706Z,4.15
2022-11-14T17:07:35.803Z,4.20
2022-11-14T17:10:03.067Z,5.03
2022-11-14T17:12:32.192Z,5.45
2022-11-14T17:14:59.547Z,5.47
2022-11-14T17:17:26.889Z,5.55
2022-11-14T17:19:54.197Z,6.72
2022-11-14T17:22:21.424Z,7.78
2022-11-14T17:24:48.539Z,5.70
2022-11-14T17:27:15.861Z,6.10
2022-11-14T17:29:42.980Z,6.88
2022-11-14T17:32:10.076Z,6.70
2022-11-14T17:34:37.155Z,5.82
2022-11-14T17:37:04.253Z,5.00
2022-11-14T17:39:31.337Z,5.65
2022-11-14T17:41:58.437Z,5.82
2022-11-14T17:44:25.463Z,6.13
2022-11-14T17:46:53.904Z,5.45
2022-11-14T17:49:20.979Z,5.70
2022-11-14T17:51:48.204Z,5.85
2022-11-14T17:54:15.235Z,6.97
2022-11-14T17:56:47.513Z,5.68
2022-11-14T17:59:16.971Z,5.05
2022-11-14T18:01:44.154Z,6.00
2022-11-14T18:04:12.089Z,4.93
2022-11-14T18:06:39.140Z,5.32
2022-11-14T18:09:08.117Z,5.43
2022-11-14T18:11:38.659Z,5.60
2022-11-14T18:14:05.818Z,5.35
2022-11-14T18:16:57.633Z,5.93
2022-11-14T18:19:20.331Z,5.10
2022-11-14T18:21:53.226Z,5.47
2022-11-14T18:24:21.814Z,5.93
2022-11-14T18:26:49.065Z,5.40
2022-11-14T18:29:16.217Z,5.47
2022-11-14T18:31:43.271Z,5.60
2022-11-14T18:34:10.376Z,5.63
2022-11-14T18:36:37.433Z,5.35
2022-11-14T18:39:04.822Z,5.88
2022-11-14T18:41:32.103Z,5.60
2022-11-14T18:43:59.182Z,5.13
2022-11-14T18:46:26.911Z,5.35
2022-11-14T18:48:57.166Z,5.20
2022-11-14T18:51:28.283Z,5.70
2022-11-14T18:53:56.629Z,4.95
2022-11-14T18:56:25.562Z,5.35
2022-11-14T18:58:54.925Z,4.57
2022-11-14T19:01:29.485Z,4.93
2022-11-14T19:04:02.056Z,5.07
2022-11-14T19:06:32.375Z,5.20
2022-11-14T19:09:11.198Z,4.82
2022-11-14T19:11:57.599Z,4.70
2022-11-14T19:14:25.037Z,4.72
2022-11-14T19:16:52.200Z,4.97
2022-11-14T19:19:19.452Z,6.65
2022-11-14T19:21:50.658Z,5.72
2022-11-14T19:24:17.908Z,5.22
2022-11-14T19:26:45.462Z,4.80
2022-11-14T19:29:15.403Z,5.60
2022-11-14T19:31:43.206Z,5.93
2022-11-14T19:34:10.575Z,5.63
2022-11-14T19:36:58.947Z,5.07
2022-11-14T19:39:25.024Z,4.20
2022-11-14T19:41:52.050Z,4.82
2022-11-14T19:44:19.099Z,4.65
2022-11-14T19:46:48.108Z,4.50
2022-11-14T19:49:15.615Z,4.60
2022-11-14T19:51:42.843Z,4.10
2022-11-14T19:54:11.074Z,4.07
2022-11-14T19:56:38.302Z,4.60
2022-11-14T19:59:09.742Z,4.10
2022-11-14T20:01:42.362Z,4.38
2022-11-14T20:04:12.323Z,4.18
2022-11-14T20:06:39.825Z,4.32
2022-11-14T20:09:09.318Z,4.43
2022-11-14T20:11:36.772Z,4.57
2022-11-14T20:14:05.702Z,5.10
2022-11-14T20:16:35.445Z,4.38
2022-11-14T20:19:03.202Z,4.55
2022-11-14T20:21:32.643Z,4.85
2022-11-14T20:24:00.409Z,4.70
2022-11-14T20:26:28.237Z,4.53
2022-11-14T20:28:55.753Z,4.72
2022-11-14T20:31:25.663Z,4.68
2022-11-14T20:33:53.869Z,4.75
2022-11-14T20:36:32.035Z,5.28
2022-11-14T20:39:02.649Z,5.00
2022-11-14T20:41:30.049Z,4.88
2022-11-14T20:43:57.417Z,5.05
2022-11-14T20:46:24.567Z,5.40
2022-11-14T20:48:52.013Z,4.53
2022-11-14T20:51:21.314Z,4.40
2022-11-14T20:53:50.226Z,4.38
2022-11-14T20:56:18.296Z,5.65
2022-11-14T20:58:47.569Z,5.20
2022-11-14T21:01:15.784Z,5.00
2022-11-14T21:03:43.351Z,5.03
2022-11-14T21:06:13.177Z,4.78
2022-11-14T21:08:42.538Z,5.00
2022-11-14T21:11:16.462Z,4.75
2022-11-14T21:13:59.386Z,5.18
2022-11-14T21:16:30.449Z,5.22
2022-11-14T21:18:58.495Z,4.70
2022-11-14T21:21:30.987Z,4.80
2022-11-14T21:23:58.269Z,5.10
2022-11-14T21:26:31.884Z,5.00
2022-11-14T21:29:04.812Z,4.78
2022-11-14T21:31:41.311Z,4.78
2022-11-14T21:34:12.524Z,5.25
2022-11-14T21:36:47.331Z,5.75
2022-11-14T21:39:17.461Z,5.15
2022-11-14T21:41:48.633Z,5.00
2022-11-14T21:44:18.029Z,5.20
2022-11-14T21:46:48.891Z,5.07
2022-11-14T21:49:16.185Z,4.68
2022-11-14T21:51:43.699Z,5.13
2022-11-14T21:54:11.024Z,4.75
2022-11-14T21:56:38.732Z,5.35
2022-11-14T21:59:13.346Z,4.72
2022-11-14T22:02:02.535Z,4.78
2022-11-14T22:04:31.561Z,4.47
2022-11-14T22:07:00.161Z,4.97
2022-11-14T22:09:28.802Z,4.40
2022-11-14T22:11:56.741Z,4.50
2022-11-14T22:14:24.611Z,4.53
2022-11-14T22:16:51.946Z,4.40
2022-11-14T22:19:19.219Z,4.63
2022-11-14T22:21:46.491Z,4.38
2022-11-14T22:24:13.512Z,5.07
2022-11-14T22:26:41.617Z,5.57
2022-11-14T22:29:09.603Z,4.85
2022-11-14T22:31:38.036Z,4.20
2022-11-14T22:34:05.664Z,5.25
2022-11-14T22:36:33.645Z,4.57
2022-11-14T22:39:00.921Z,4.57
2022-11-14T22:41:33.112Z,4.88
2022-11-14T22:44:01.407Z,4.07
2022-11-14T22:46:28.776Z,4.72
2022-11-14T22:48:56.017Z,5.13
2022-11-14T22:51:25.134Z,5.60
2022-11-14T22:53:55.124Z,4.72
2022-11-14T22:56:24.768Z,4.43
2022-11-14T22:58:52.493Z,4.75
2022-11-14T23:01:21.194Z,4.57
2022-11-14T23:03:52.718Z,5.00
2022-11-14T23:08:47.314Z,4.15
2022-11-14T23:11:20.654Z,4.25
2022-11-14T23:13:51.094Z,3.90
2022-11-14T23:16:27.875Z,4.68
2022-11-14T23:18:57.457Z,4.82
2022-11-14T23:21:31.154Z,5.07
2022-11-14T23:24:05.467Z,5.78
2022-11-14T23:26:33.599Z,4.32
2022-11-14T23:29:01.103Z,4.55
2022-11-14T23:31:28.578Z,5.18
2022-11-14T23:33:56.605Z,4.28
2022-11-14T23:36:23.950Z,4.53
2022-11-14T23:38:55.072Z,5.05
2022-11-14T23:41:25.644Z,4.70
2022-11-14T23:43:53.146Z,4.23
2022-11-14T23:46:20.338Z,5.28
2022-11-14T23:48:47.494Z,4.63
2022-11-14T23:51:14.877Z,4.93
2022-11-14T23:53:42.397Z,3.78
2022-11-14T23:56:13.168Z,5.15
2022-11-14T23:58:40.911Z,5.13
